MSC Adriana — 9HA2642 — position and weather

sailwx.info

Track history (hours):
 
Tides and Currents Weather Stations Pressure Air Temp Water Temp Dewpoint Dewpoint Depression Visibility Wind Speed Wind Dir Waves Ship Positions

MSC Adriana

Last reported at 2017-Nov-10 01:04 UTC. Time now 2017-Dec-12 04:49 UTC.
Position N 37°12' E 025°49'.
Warning: this ship's position is 32 days out of date.

Length 216 m; draft 7.3 m.

Type: Cargo ship. MMSI: 215108000.

Date/timePositionNaut miles runAvg speedWind from/ knotsBaromVisibWave heightAir tempDewpointWater temp
2017-Nov-10 01:04N 37°12' E 025°49'113.2
2017-Nov-10 01:00N 37°12' E 025°48'1512.7
2017-Nov-09 23:52N 37°15' E 025°30'412.3
2017-Nov-09 23:30N 37°16' E 025°25'612.2
2017-Nov-09 23:01N 37°16' E 025°17'713.0
2017-Nov-09 22:30N 37°17' E 025°09'613.0
2017-Nov-09 22:00N 37°18' E 025°01'713.0
2017-Nov-09 21:30N 37°19' E 024°53'612.7
2017-Nov-09 21:01N 37°22' E 024°46'4812.9
2017-Nov-09 17:18N 37°37' E 023°49'413.3
2017-Nov-09 17:00N 37°39' E 023°44'612.7
2017-Nov-09 16:31N 37°44' E 023°40'713.6
2017-Nov-09 16:00N 37°50' E 023°37'611.6
2017-Nov-09 15:30N 37°56' E 023°36'1 2.4
2017-Nov-09 15:01N 37°57' E 023°36'0 0.0
2017-Nov-09 14:31N 37°57' E 023°36'0 0.0
2017-Nov-09 13:58N 37°57' E 023°36'0 0.0
2017-Nov-09 13:31N 37°57' E 023°36'0 0.0
2017-Nov-09 12:58N 37°57' E 023°36'0 0.0
2017-Nov-09 12:31N 37°57' E 023°36'0 0.0
2017-Nov-09 12:01N 37°57' E 023°36'0 0.0
2017-Nov-09 11:31N 37°57' E 023°36'0 0.0
2017-Nov-09 11:01N 37°57' E 023°36'0 0.0
2017-Nov-09 10:31N 37°57' E 023°36'0 0.0
2017-Nov-09 10:01N 37°57' E 023°36'0 0.0
2017-Nov-09 09:31N 37°57' E 023°36'0 0.0
2017-Nov-09 09:01N 37°57' E 023°36'0 0.0
2017-Nov-09 08:25N 37°57' E 023°36'0 0.0
2017-Nov-09 08:01N 37°57' E 023°36'0 0.0
2017-Nov-09 07:28N 37°57' E 023°36'0 0.0
2017-Nov-09 07:01N 37°57' E 023°36'0 0.0
2017-Nov-09 06:31N 37°57' E 023°36'0 0.0
2017-Nov-09 06:00N 37°57' E 023°36'1 2.9
2017-Nov-09 05:30N 37°56' E 023°36'1 2.0
2017-Nov-09 05:00N 37°55' E 023°35'1 1.1
2017-Nov-09 04:30N 37°54' E 023°35'2 4.2
2017-Nov-09 04:00N 37°53' E 023°37'2 4.9
2017-Nov-09 03:30N 37°51' E 023°40'4 8.0
2017-Nov-09 03:00N 37°48' E 023°42'4 8.9
2017-Nov-09 02:30N 37°43' E 023°44'5 9.4
2017-Nov-09 02:00N 37°39' E 023°46'5 9.8
2017-Nov-09 01:29N 37°36' E 023°52'5 9.8
2017-Nov-09 01:00N 37°35' E 023°57'5 9.7
2017-Nov-09 00:30N 37°33' E 024°03'10 9.5
2017-Nov-08 23:30N 37°30' E 024°15'25 9.3
2017-Nov-08 20:51N 37°23' E 024°44'3 9.6
2017-Nov-08 20:30N 37°21' E 024°48'5 9.6
2017-Nov-08 20:00N 37°19' E 024°53'510.2
2017-Nov-08 19:30N 37°19' E 024°60'5 9.9
2017-Nov-08 19:00N 37°18' E 025°06'510.0
2017-Nov-08 18:30N 37°17' E 025°12'5 9.9
2017-Nov-08 18:00N 37°16' E 025°18'810.8
2017-Nov-08 17:16N 37°15' E 025°28'910.8
2017-Nov-08 16:25N 37°14' E 025°39'410.3
2017-Nov-08 16:00N 37°13' E 025°45'239 9.8
2017-Nov-07 15:36N 36°27' E 030°38'113.3
2017-Nov-07 15:30N 36°29' E 030°38'613.1
2017-Nov-07 15:00N 36°35' E 030°39'713.5
2017-Nov-07 14:30N 36°42' E 030°39'713.3
2017-Nov-07 14:00N 36°48' E 030°39'2 4.6
2017-Nov-07 13:31N 36°50' E 030°37'0 0.5
2017-Nov-07 13:00N 36°50' E 030°37'0 0.0
2017-Nov-07 12:30N 36°50' E 030°37'0 0.0
2017-Nov-07 12:00N 36°50' E 030°37'0 0.0
2017-Nov-07 11:21N 36°50' E 030°37'0 0.0
2017-Nov-07 11:00N 36°50' E 030°37'0 0.0
2017-Nov-07 10:30N 36°50' E 030°37'0 0.0
2017-Nov-07 10:00N 36°50' E 030°37'0 0.0
2017-Nov-07 09:30N 36°50' E 030°37'0 0.0
2017-Nov-07 09:00N 36°50' E 030°37'0 0.0
2017-Nov-07 08:30N 36°50' E 030°37'0 0.0
2017-Nov-07 08:00N 36°50' E 030°37'0 0.0
2017-Nov-07 07:30N 36°50' E 030°37'0 0.0
2017-Nov-07 07:00N 36°50' E 030°37'0 0.0
2017-Nov-07 06:30N 36°50' E 030°37'0 0.0
2017-Nov-07 06:00N 36°50' E 030°37'0 0.0
2017-Nov-07 05:30N 36°50' E 030°37'0 0.0
2017-Nov-07 05:00N 36°50' E 030°37'0 0.0
2017-Nov-07 04:30N 36°50' E 030°37'0 0.0
2017-Nov-07 04:00N 36°50' E 030°37'0 0.0
2017-Nov-07 03:30N 36°50' E 030°37'0 0.0
2017-Nov-07 03:00N 36°50' E 030°37'0 0.0
2017-Nov-07 02:30N 36°50' E 030°37'0 0.0
2017-Nov-07 02:00N 36°50' E 030°37'0 0.0
2017-Nov-07 01:30N 36°50' E 030°37'0 0.0
2017-Nov-07 01:00N 36°50' E 030°37'0 0.0
2017-Nov-07 00:24N 36°50' E 030°37'0 0.0
2017-Nov-07 00:00N 36°50' E 030°37'0 0.0
2017-Nov-06 23:30N 36°50' E 030°37'0 0.0
2017-Nov-06 23:00N 36°50' E 030°37'0 0.0
2017-Nov-06 22:30N 36°50' E 030°37'0 0.4
2017-Nov-06 22:01N 36°50' E 030°37'1 2.0
2017-Nov-06 21:31N 36°50' E 030°38'1 2.5
2017-Nov-06 20:59N 36°49' E 030°37'0 0.0
2017-Nov-06 20:26N 36°49' E 030°37'0 0.0
2017-Nov-06 02:29N 36°49' E 030°37'0 0.0
2017-Nov-06 01:56N 36°49' E 030°37'0 0.1
2017-Nov-06 01:26N 36°49' E 030°37'0 0.0
2017-Nov-06 00:59N 36°49' E 030°37'0 0.0
2017-Nov-06 00:29N 36°49' E 030°37'0 0.0
2017-Nov-05 23:59N 36°49' E 030°37'0 0.0
2017-Nov-05 23:29N 36°49' E 030°37'0 0.0
2017-Nov-05 22:59N 36°49' E 030°37'0 0.0
2017-Nov-05 22:26N 36°49' E 030°37'0 0.0
2017-Nov-05 21:56N 36°49' E 030°37'0 0.0
2017-Nov-05 21:26N 36°49' E 030°37'0 0.1
2017-Nov-05 20:59N 36°49' E 030°37'0 0.0
2017-Nov-05 20:29N 36°49' E 030°37'0 0.0
2017-Nov-05 19:59N 36°49' E 030°37'0 0.0
2017-Nov-05 19:29N 36°49' E 030°37'0 0.0
2017-Nov-05 18:59N 36°49' E 030°37'0 0.1
2017-Nov-05 18:29N 36°49' E 030°37'0 0.0
2017-Nov-05 17:59N 36°49' E 030°37'0 0.1
2017-Nov-05 17:29N 36°49' E 030°37'0 0.0
2017-Nov-05 16:59N 36°49' E 030°37'0 0.0
2017-Nov-05 16:29N 36°49' E 030°37'0 0.1
2017-Nov-05 16:00N 36°49' E 030°37'2 3.8
2017-Nov-05 15:30N 36°47' E 030°38'611.4
2017-Nov-05 15:00N 36°42' E 030°40'713.5
2017-Nov-05 14:30N 36°35' E 030°40'713.4
2017-Nov-05 14:01N 36°28' E 030°38'713.5
2017-Nov-05 13:30N 36°22' E 030°37'1212.9
2017-Nov-05 12:35N 36°10' E 030°32'113.1
2017-Nov-05 12:29N 36°10' E 030°31'23412.1
2017-Nov-04 17:08N 37°12' E 025°49'213.7
2017-Nov-04 17:00N 37°13' E 025°47'1412.6
2017-Nov-04 15:55N 37°15' E 025°30'512.5
2017-Nov-04 15:30N 37°16' E 025°24'612.4
2017-Nov-04 15:00N 37°17' E 025°16'612.4
2017-Nov-04 14:30N 37°17' E 025°09'612.5
2017-Nov-04 14:00N 37°19' E 025°01'612.7
2017-Nov-04 13:30N 37°19' E 024°53'713.3
2017-Nov-04 13:00N 37°22' E 024°45'4613.1
2017-Nov-04 09:30N 37°37' E 023°50'712.9
2017-Nov-04 09:00N 37°39' E 023°43'713.6
2017-Nov-04 08:30N 37°45' E 023°39'713.3
2017-Nov-04 08:00N 37°52' E 023°36'510.5
2017-Nov-04 07:30N 37°57' E 023°36'0 0.5
2017-Nov-04 06:59N 37°57' E 023°35'0 0.0
2017-Nov-04 06:29N 37°57' E 023°35'0 0.0
2017-Nov-04 05:59N 37°57' E 023°35'0 0.0
2017-Nov-04 05:29N 37°57' E 023°35'0 0.0
2017-Nov-04 04:59N 37°57' E 023°35'0 0.0
2017-Nov-04 04:29N 37°57' E 023°35'0 0.0
2017-Nov-04 03:59N 37°57' E 023°35'0 0.0
2017-Nov-04 03:29N 37°57' E 023°35'0 0.0
2017-Nov-04 02:59N 37°57' E 023°35'0 0.0
2017-Nov-04 02:29N 37°57' E 023°35'0 0.0
2017-Nov-04 01:59N 37°57' E 023°35'0 0.0
2017-Nov-04 01:29N 37°57' E 023°35'0 0.0
2017-Nov-04 00:59N 37°57' E 023°35'0 0.0
2017-Nov-04 00:29N 37°57' E 023°35'0 0.0
2017-Nov-03 23:59N 37°57' E 023°35'0 0.0
2017-Nov-03 23:29N 37°57' E 023°35'0 0.0
2017-Nov-03 22:59N 37°57' E 023°35'0 0.0
2017-Nov-03 22:29N 37°57' E 023°35'0 0.0
2017-Nov-03 21:56N 37°57' E 023°35'0 0.7
2017-Nov-03 21:30N 37°57' E 023°35'2 4.6
2017-Nov-03 21:01N 37°55' E 023°34'0 0.6
2017-Nov-03 20:30N 37°55' E 023°35'1 2.3
2017-Nov-03 20:00N 37°54' E 023°35'3 6.0
2017-Nov-03 19:30N 37°52' E 023°38'5 9.6
2017-Nov-03 19:00N 37°48' E 023°41'713.6
2017-Nov-03 18:30N 37°42' E 023°44'713.1
2017-Nov-03 18:00N 37°37' E 023°50'713.4
2017-Nov-03 17:30N 37°34' E 023°58'813.5
2017-Nov-03 16:55N 37°32' E 024°07'3012.8
2017-Nov-03 14:33N 37°23' E 024°44'113.5
2017-Nov-03 14:30N 37°23' E 024°45'713.7
2017-Nov-03 14:00N 37°19' E 024°52'714.1
2017-Nov-03 13:30N 37°18' E 025°01'714.2
2017-Nov-03 13:00N 37°17' E 025°10'714.5
2017-Nov-03 12:30N 37°16' E 025°19'714.8
2017-Nov-03 12:00N 37°15' E 025°28'914.4
2017-Nov-03 11:23N 37°13' E 025°39'514.1
2017-Nov-03 11:00N 37°12' E 025°45'  
2017-Nov-01 02:00N 36°50' E 030°37'0 0.0
2017-Nov-01 01:27N 36°50' E 030°37'0 0.0
2017-Nov-01 00:57N 36°50' E 030°37'0 0.0
2017-Nov-01 00:27N 36°50' E 030°37'0 0.0
2017-Nov-01 00:00N 36°50' E 030°37'0 0.0
2017-Oct-31 23:27N 36°50' E 030°37'0 0.0
2017-Oct-31 23:00N 36°50' E 030°37'0 0.0
2017-Oct-31 22:30N 36°50' E 030°37'0 0.0
2017-Oct-31 21:54N 36°50' E 030°37'0 0.0
2017-Oct-31 21:30N 36°50' E 030°37'0 0.0
2017-Oct-31 21:00N 36°50' E 030°37'1 1.3
2017-Oct-31 20:30N 36°50' E 030°37'4 7.4
2017-Oct-31 20:00N 36°48' E 030°41'4 7.6
2017-Oct-31 19:30N 36°44' E 030°41'1 1.0
2017-Oct-31 19:00N 36°45' E 030°42'1 1.3
2017-Oct-31 18:30N 36°45' E 030°42'1 1.2
2017-Oct-31 18:00N 36°46' E 030°42'1 1.3
2017-Oct-31 17:30N 36°46' E 030°43'1 1.1
2017-Oct-31 17:00N 36°47' E 030°43'0 1.0
2017-Oct-31 16:30N 36°47' E 030°43'3 5.3
2017-Oct-31 16:00N 36°45' E 030°44'611.7
2017-Oct-31 15:30N 36°40' E 030°47'713.5
2017-Oct-31 15:00N 36°34' E 030°51'713.5
2017-Oct-31 14:30N 36°28' E 030°55'713.6
2017-Oct-31 14:00N 36°22' E 030°60'813.5
2017-Oct-31 13:24N 36°15' E 031°04'  
Track history (hours):
 
Tides and Currents Weather Stations Pressure Air Temp Water Temp Dewpoint Dewpoint Depression Visibility Wind Speed Wind Dir Waves Ship Positions

MSC Adriana

Last reported at 2017-Nov-10 01:04 UTC. Time now 2017-Dec-12 04:49 UTC.
Position N 37°12' E 025°49'.
Warning: this ship's position is 32 days out of date.

Length 216 m; draft 7.3 m.

Type: Cargo ship. MMSI: 215108000.

Date/timePositionNaut miles runAvg speedWind from/ knotsBaromVisibWave heightAir tempDewpointWater temp
2017-Nov-10 01:04N 37°12' E 025°49'113.2
2017-Nov-10 01:00N 37°12' E 025°48'1512.7
2017-Nov-09 23:52N 37°15' E 025°30'412.3
2017-Nov-09 23:30N 37°16' E 025°25'612.2
2017-Nov-09 23:01N 37°16' E 025°17'713.0
2017-Nov-09 22:30N 37°17' E 025°09'613.0
2017-Nov-09 22:00N 37°18' E 025°01'713.0
2017-Nov-09 21:30N 37°19' E 024°53'612.7
2017-Nov-09 21:01N 37°22' E 024°46'4812.9
2017-Nov-09 17:18N 37°37' E 023°49'413.3
2017-Nov-09 17:00N 37°39' E 023°44'612.7
2017-Nov-09 16:31N 37°44' E 023°40'713.6
2017-Nov-09 16:00N 37°50' E 023°37'611.6
2017-Nov-09 15:30N 37°56' E 023°36'1 2.4
2017-Nov-09 15:01N 37°57' E 023°36'0 0.0
2017-Nov-09 14:31N 37°57' E 023°36'0 0.0
2017-Nov-09 13:58N 37°57' E 023°36'0 0.0
2017-Nov-09 13:31N 37°57' E 023°36'0 0.0
2017-Nov-09 12:58N 37°57' E 023°36'0 0.0
2017-Nov-09 12:31N 37°57' E 023°36'0 0.0
2017-Nov-09 12:01N 37°57' E 023°36'0 0.0
2017-Nov-09 11:31N 37°57' E 023°36'0 0.0
2017-Nov-09 11:01N 37°57' E 023°36'0 0.0
2017-Nov-09 10:31N 37°57' E 023°36'0 0.0
2017-Nov-09 10:01N 37°57' E 023°36'0 0.0
2017-Nov-09 09:31N 37°57' E 023°36'0 0.0
2017-Nov-09 09:01N 37°57' E 023°36'0 0.0
2017-Nov-09 08:25N 37°57' E 023°36'0 0.0
2017-Nov-09 08:01N 37°57' E 023°36'0 0.0
2017-Nov-09 07:28N 37°57' E 023°36'0 0.0
2017-Nov-09 07:01N 37°57' E 023°36'0 0.0
2017-Nov-09 06:31N 37°57' E 023°36'0 0.0
2017-Nov-09 06:00N 37°57' E 023°36'1 2.9
2017-Nov-09 05:30N 37°56' E 023°36'1 2.0
2017-Nov-09 05:00N 37°55' E 023°35'1 1.1
2017-Nov-09 04:30N 37°54' E 023°35'2 4.2
2017-Nov-09 04:00N 37°53' E 023°37'2 4.9
2017-Nov-09 03:30N 37°51' E 023°40'4 8.0
2017-Nov-09 03:00N 37°48' E 023°42'4 8.9
2017-Nov-09 02:30N 37°43' E 023°44'5 9.4
2017-Nov-09 02:00N 37°39' E 023°46'5 9.8
2017-Nov-09 01:29N 37°36' E 023°52'5 9.8
2017-Nov-09 01:00N 37°35' E 023°57'5 9.7
2017-Nov-09 00:30N 37°33' E 024°03'10 9.5
2017-Nov-08 23:30N 37°30' E 024°15'25 9.3
2017-Nov-08 20:51N 37°23' E 024°44'3 9.6
2017-Nov-08 20:30N 37°21' E 024°48'5 9.6
2017-Nov-08 20:00N 37°19' E 024°53'510.2
2017-Nov-08 19:30N 37°19' E 024°60'5 9.9
2017-Nov-08 19:00N 37°18' E 025°06'510.0
2017-Nov-08 18:30N 37°17' E 025°12'5 9.9
2017-Nov-08 18:00N 37°16' E 025°18'810.8
2017-Nov-08 17:16N 37°15' E 025°28'910.8
2017-Nov-08 16:25N 37°14' E 025°39'410.3
2017-Nov-08 16:00N 37°13' E 025°45'239 9.8
2017-Nov-07 15:36N 36°27' E 030°38'113.3
2017-Nov-07 15:30N 36°29' E 030°38'613.1
2017-Nov-07 15:00N 36°35' E 030°39'713.5
2017-Nov-07 14:30N 36°42' E 030°39'713.3
2017-Nov-07 14:00N 36°48' E 030°39'2 4.6
2017-Nov-07 13:31N 36°50' E 030°37'0 0.5
2017-Nov-07 13:00N 36°50' E 030°37'0 0.0
2017-Nov-07 12:30N 36°50' E 030°37'0 0.0
2017-Nov-07 12:00N 36°50' E 030°37'0 0.0
2017-Nov-07 11:21N 36°50' E 030°37'0 0.0
2017-Nov-07 11:00N 36°50' E 030°37'0 0.0
2017-Nov-07 10:30N 36°50' E 030°37'0 0.0
2017-Nov-07 10:00N 36°50' E 030°37'0 0.0
2017-Nov-07 09:30N 36°50' E 030°37'0 0.0
2017-Nov-07 09:00N 36°50' E 030°37'0 0.0
2017-Nov-07 08:30N 36°50' E 030°37'0 0.0
2017-Nov-07 08:00N 36°50' E 030°37'0 0.0
2017-Nov-07 07:30N 36°50' E 030°37'0 0.0
2017-Nov-07 07:00N 36°50' E 030°37'0 0.0
2017-Nov-07 06:30N 36°50' E 030°37'0 0.0
2017-Nov-07 06:00N 36°50' E 030°37'0 0.0
2017-Nov-07 05:30N 36°50' E 030°37'0 0.0
2017-Nov-07 05:00N 36°50' E 030°37'0 0.0
2017-Nov-07 04:30N 36°50' E 030°37'0 0.0
2017-Nov-07 04:00N 36°50' E 030°37'0 0.0
2017-Nov-07 03:30N 36°50' E 030°37'0 0.0
2017-Nov-07 03:00N 36°50' E 030°37'0 0.0
2017-Nov-07 02:30N 36°50' E 030°37'0 0.0
2017-Nov-07 02:00N 36°50' E 030°37'0 0.0
2017-Nov-07 01:30N 36°50' E 030°37'0 0.0
2017-Nov-07 01:00N 36°50' E 030°37'0 0.0
2017-Nov-07 00:24N 36°50' E 030°37'0 0.0
2017-Nov-07 00:00N 36°50' E 030°37'0 0.0
2017-Nov-06 23:30N 36°50' E 030°37'0 0.0
2017-Nov-06 23:00N 36°50' E 030°37'0 0.0
2017-Nov-06 22:30N 36°50' E 030°37'0 0.4
2017-Nov-06 22:01N 36°50' E 030°37'1 2.0
2017-Nov-06 21:31N 36°50' E 030°38'1 2.5
2017-Nov-06 20:59N 36°49' E 030°37'0 0.0
2017-Nov-06 20:26N 36°49' E 030°37'0 0.0
2017-Nov-06 02:29N 36°49' E 030°37'0 0.0
2017-Nov-06 01:56N 36°49' E 030°37'0 0.1
2017-Nov-06 01:26N 36°49' E 030°37'0 0.0
2017-Nov-06 00:59N 36°49' E 030°37'0 0.0
2017-Nov-06 00:29N 36°49' E 030°37'0 0.0
2017-Nov-05 23:59N 36°49' E 030°37'0 0.0
2017-Nov-05 23:29N 36°49' E 030°37'0 0.0
2017-Nov-05 22:59N 36°49' E 030°37'0 0.0
2017-Nov-05 22:26N 36°49' E 030°37'0 0.0
2017-Nov-05 21:56N 36°49' E 030°37'0 0.0
2017-Nov-05 21:26N 36°49' E 030°37'0 0.1
2017-Nov-05 20:59N 36°49' E 030°37'0 0.0
2017-Nov-05 20:29N 36°49' E 030°37'0 0.0
2017-Nov-05 19:59N 36°49' E 030°37'0 0.0
2017-Nov-05 19:29N 36°49' E 030°37'0 0.0
2017-Nov-05 18:59N 36°49' E 030°37'0 0.1
2017-Nov-05 18:29N 36°49' E 030°37'0 0.0
2017-Nov-05 17:59N 36°49' E 030°37'0 0.1
2017-Nov-05 17:29N 36°49' E 030°37'0 0.0
2017-Nov-05 16:59N 36°49' E 030°37'0 0.0
2017-Nov-05 16:29N 36°49' E 030°37'0 0.1
2017-Nov-05 16:00N 36°49' E 030°37'2 3.8
2017-Nov-05 15:30N 36°47' E 030°38'611.4
2017-Nov-05 15:00N 36°42' E 030°40'713.5
2017-Nov-05 14:30N 36°35' E 030°40'713.4
2017-Nov-05 14:01N 36°28' E 030°38'713.5
2017-Nov-05 13:30N 36°22' E 030°37'1212.9
2017-Nov-05 12:35N 36°10' E 030°32'113.1
2017-Nov-05 12:29N 36°10' E 030°31'23412.1
2017-Nov-04 17:08N 37°12' E 025°49'213.7
2017-Nov-04 17:00N 37°13' E 025°47'1412.6
2017-Nov-04 15:55N 37°15' E 025°30'512.5
2017-Nov-04 15:30N 37°16' E 025°24'612.4
2017-Nov-04 15:00N 37°17' E 025°16'612.4
2017-Nov-04 14:30N 37°17' E 025°09'612.5
2017-Nov-04 14:00N 37°19' E 025°01'612.7
2017-Nov-04 13:30N 37°19' E 024°53'713.3
2017-Nov-04 13:00N 37°22' E 024°45'4613.1
2017-Nov-04 09:30N 37°37' E 023°50'712.9
2017-Nov-04 09:00N 37°39' E 023°43'713.6
2017-Nov-04 08:30N 37°45' E 023°39'713.3
2017-Nov-04 08:00N 37°52' E 023°36'510.5
2017-Nov-04 07:30N 37°57' E 023°36'0 0.5
2017-Nov-04 06:59N 37°57' E 023°35'0 0.0
2017-Nov-04 06:29N 37°57' E 023°35'0 0.0
2017-Nov-04 05:59N 37°57' E 023°35'0 0.0
2017-Nov-04 05:29N 37°57' E 023°35'0 0.0
2017-Nov-04 04:59N 37°57' E 023°35'0 0.0
2017-Nov-04 04:29N 37°57' E 023°35'0 0.0
2017-Nov-04 03:59N 37°57' E 023°35'0 0.0
2017-Nov-04 03:29N 37°57' E 023°35'0 0.0
2017-Nov-04 02:59N 37°57' E 023°35'0 0.0
2017-Nov-04 02:29N 37°57' E 023°35'0 0.0
2017-Nov-04 01:59N 37°57' E 023°35'0 0.0
2017-Nov-04 01:29N 37°57' E 023°35'0 0.0
2017-Nov-04 00:59N 37°57' E 023°35'0 0.0
2017-Nov-04 00:29N 37°57' E 023°35'0 0.0
2017-Nov-03 23:59N 37°57' E 023°35'0 0.0
2017-Nov-03 23:29N 37°57' E 023°35'0 0.0
2017-Nov-03 22:59N 37°57' E 023°35'0 0.0
2017-Nov-03 22:29N 37°57' E 023°35'0 0.0
2017-Nov-03 21:56N 37°57' E 023°35'0 0.7
2017-Nov-03 21:30N 37°57' E 023°35'2 4.6
2017-Nov-03 21:01N 37°55' E 023°34'0 0.6
2017-Nov-03 20:30N 37°55' E 023°35'1 2.3
2017-Nov-03 20:00N 37°54' E 023°35'3 6.0
2017-Nov-03 19:30N 37°52' E 023°38'5 9.6
2017-Nov-03 19:00N 37°48' E 023°41'713.6
2017-Nov-03 18:30N 37°42' E 023°44'713.1
2017-Nov-03 18:00N 37°37' E 023°50'713.4
2017-Nov-03 17:30N 37°34' E 023°58'813.5
2017-Nov-03 16:55N 37°32' E 024°07'3012.8
2017-Nov-03 14:33N 37°23' E 024°44'113.5
2017-Nov-03 14:30N 37°23' E 024°45'713.7
2017-Nov-03 14:00N 37°19' E 024°52'714.1
2017-Nov-03 13:30N 37°18' E 025°01'714.2
2017-Nov-03 13:00N 37°17' E 025°10'714.5
2017-Nov-03 12:30N 37°16' E 025°19'714.8
2017-Nov-03 12:00N 37°15' E 025°28'914.4
2017-Nov-03 11:23N 37°13' E 025°39'514.1
2017-Nov-03 11:00N 37°12' E 025°45'  
2017-Nov-01 02:00N 36°50' E 030°37'0 0.0
2017-Nov-01 01:27N 36°50' E 030°37'0 0.0
2017-Nov-01 00:57N 36°50' E 030°37'0 0.0
2017-Nov-01 00:27N 36°50' E 030°37'0 0.0
2017-Nov-01 00:00N 36°50' E 030°37'0 0.0
2017-Oct-31 23:27N 36°50' E 030°37'0 0.0
2017-Oct-31 23:00N 36°50' E 030°37'0 0.0
2017-Oct-31 22:30N 36°50' E 030°37'0 0.0
2017-Oct-31 21:54N 36°50' E 030°37'0 0.0
2017-Oct-31 21:30N 36°50' E 030°37'0 0.0
2017-Oct-31 21:00N 36°50' E 030°37'1 1.3
2017-Oct-31 20:30N 36°50' E 030°37'4 7.4
2017-Oct-31 20:00N 36°48' E 030°41'4 7.6
2017-Oct-31 19:30N 36°44' E 030°41'1 1.0
2017-Oct-31 19:00N 36°45' E 030°42'1 1.3
2017-Oct-31 18:30N 36°45' E 030°42'1 1.2
2017-Oct-31 18:00N 36°46' E 030°42'1 1.3
2017-Oct-31 17:30N 36°46' E 030°43'1 1.1
2017-Oct-31 17:00N 36°47' E 030°43'0 1.0
2017-Oct-31 16:30N 36°47' E 030°43'3 5.3
2017-Oct-31 16:00N 36°45' E 030°44'611.7
2017-Oct-31 15:30N 36°40' E 030°47'713.5
2017-Oct-31 15:00N 36°34' E 030°51'713.5
2017-Oct-31 14:30N 36°28' E 030°55'713.6
2017-Oct-31 14:00N 36°22' E 030°60'813.5
2017-Oct-31 13:24N 36°15' E 031°04'  

Dump ship's entire track history